Aviation Digital Data Service (ADDS)

Output produced by METARs form (1112 UTC 24 April 2017)
found at http://www.aviationweather.gov/adds/metars/
 
KVCT 240523Z 2406/2506 VRB03KT P6SM FEW250 
     FM241600 12005KT P6SM BKN250 
     FM242000 16010KT P6SM BKN250 
     FM250100 17007KT P6SM SCT150
       
KVEL 240526Z 2406/2506 29009KT P6SM VCSH BKN100 
     TEMPO 2406/2407 -RA BKN080 
     FM240700 30007KT P6SM SCT200 
     FM240900 21005KT P6SM SCT150 
     FM241000 31005KT P6SM SCT150 
     FM241400 00000KT P6SM OVC100 
     FM242000 24011G20KT P6SM VCSH OVC070
       
KVGT 240520Z 2406/2506 25010KT P6SM SCT250 
     FM241200 32006KT P6SM SCT250 
     FM242000 24010G18KT P6SM BKN150 
     FM250200 26010KT P6SM BKN150
       
KVIS 240527Z 2406/2506 31010KT P6SM SKC
       
KVLD 240528Z 2406/2506 VRB04KT P6SM OVC021 
     FM241200 29010KT P6SM BKN040 
     FM242300 31006KT P6SM SKC
       
KVNY 240548Z 2406/2506 12006KT P6SM SCT200 
     FM242100 17012KT P6SM SCT200
       
TAF KVPS 240700Z 2407/2513 32009KT 9999 SCT040 QNH2978INS 
     BECMG 2417/2418 32010G15KT 9999 SCT040 QNH2981INS 
     BECMG 2500/2501 34006KT 9999 FEW030 QNH2980INS TX23/2420Z TN11/2411Z
       
KVQQ 240919Z 2409/2506 25008KT P6SM VCSH SCT015 OVC030 
     TEMPO 2409/2411 BKN015 
     FM241200 27010KT P6SM SCT025 BKN040 
     FM241600 27012G18KT P6SM SCT050 
     FM242300 27007KT P6SM SCT030
       
KVRB 240520Z 2406/2506 28005KT P6SM FEW020 SCT080 
     FM240900 23003KT P6SM SCT010 SCT025 
     FM241300 26009KT P6SM SCT030 
     TEMPO 2415/2418 BKN035 
     FM241800 27016G24KT P6SM SCT040 
     FM250000 26011KT P6SM SCT250
       
KVTN 240520Z 2406/2506 19016G24KT P6SM BKN250 
     FM241300 22013G19KT P6SM BKN200 
     FM241400 27014G22KT P6SM BKN200 
     FM241600 30016G24KT P6SM BKN200 
     FM242200 32012KT P6SM BKN200 
     FM250100 36009KT P6SM SCT150 BKN200 
     FM250300 03007KT P6SM SCT120 BKN200